createdAt,value
2018-07-30T00:00:59.177Z,25.40
2018-07-30T00:03:31.899Z,25.40
2018-07-30T00:06:04.317Z,25.40
2018-07-30T00:08:36.685Z,25.40
2018-07-30T00:11:09.137Z,25.30
2018-07-30T00:13:41.526Z,25.30
2018-07-30T00:16:14.249Z,25.30
2018-07-30T00:18:46.619Z,25.30
2018-07-30T00:21:19.359Z,25.30
2018-07-30T00:23:51.997Z,25.30
2018-07-30T00:26:24.679Z,25.20
2018-07-30T00:28:57.061Z,25.20
2018-07-30T00:31:29.469Z,25.20
2018-07-30T00:34:01.846Z,25.20
2018-07-30T00:36:34.249Z,25.20
2018-07-30T00:39:08.732Z,25.10
2018-07-30T00:41:41.109Z,25.10
2018-07-30T00:44:13.480Z,25.10
2018-07-30T00:46:45.913Z,25.00
2018-07-30T00:49:18.585Z,24.90
2018-07-30T00:51:51.263Z,24.90
2018-07-30T00:54:23.937Z,24.80
2018-07-30T00:56:56.400Z,24.70
2018-07-30T00:59:28.986Z,24.70
2018-07-30T01:02:01.390Z,24.60
2018-07-30T01:04:33.884Z,24.50
2018-07-30T01:07:06.308Z,24.40
2018-07-30T01:09:38.811Z,24.40
2018-07-30T01:12:11.242Z,24.30
2018-07-30T01:17:15.873Z,24.20
2018-07-30T01:19:48.245Z,24.10
2018-07-30T01:22:20.643Z,24.00
2018-07-30T01:27:25.545Z,23.90
2018-07-30T01:29:57.930Z,23.90
2018-07-30T01:32:30.637Z,23.80
2018-07-30T01:35:03.017Z,23.80
2018-07-30T01:37:35.441Z,23.70
2018-07-30T01:40:07.829Z,23.60
2018-07-30T01:42:40.230Z,23.60
2018-07-30T01:45:12.886Z,23.60
2018-07-30T01:47:45.289Z,23.50
2018-07-30T01:50:17.659Z,23.50
2018-07-30T01:52:50.042Z,23.40
2018-07-30T01:55:22.477Z,23.40
2018-07-30T01:57:54.881Z,23.30
2018-07-30T02:00:27.482Z,23.30
2018-07-30T02:02:59.885Z,23.20
2018-07-30T02:05:32.306Z,23.20
2018-07-30T02:08:04.932Z,23.20
2018-07-30T02:10:37.613Z,23.10
2018-07-30T02:13:10.032Z,23.10
2018-07-30T02:15:42.413Z,23.10
2018-07-30T02:18:14.868Z,23.00
2018-07-30T02:20:47.490Z,23.00
2018-07-30T02:23:19.889Z,23.00
2018-07-30T02:25:52.595Z,23.00
2018-07-30T02:28:24.993Z,23.00
2018-07-30T02:30:57.397Z,23.00
2018-07-30T02:33:30.104Z,23.00
2018-07-30T02:36:02.527Z,23.00
2018-07-30T02:38:34.943Z,23.00
2018-07-30T02:41:07.360Z,23.00
2018-07-30T02:43:40.119Z,23.00
2018-07-30T02:46:12.518Z,22.90
2018-07-30T02:48:44.927Z,22.90
2018-07-30T02:51:17.342Z,22.90
2018-07-30T02:53:50.090Z,22.80
2018-07-30T02:56:22.476Z,22.80
2018-07-30T02:58:54.909Z,22.80
2018-07-30T03:01:27.294Z,22.80
2018-07-30T03:03:59.693Z,22.70
2018-07-30T03:06:32.119Z,22.70
2018-07-30T03:09:07.294Z,22.70
2018-07-30T03:11:39.966Z,22.60
2018-07-30T03:14:12.682Z,22.60
2018-07-30T03:16:45.074Z,22.50
2018-07-30T03:19:17.813Z,22.50
2018-07-30T03:21:50.185Z,22.50
2018-07-30T03:24:22.573Z,22.50
2018-07-30T03:26:54.945Z,22.50
2018-07-30T03:29:27.351Z,22.40
2018-07-30T03:31:59.746Z,22.40
2018-07-30T03:34:32.149Z,22.40
2018-07-30T03:37:04.542Z,22.40
2018-07-30T03:39:36.957Z,22.30
2018-07-30T03:42:09.369Z,22.30
2018-07-30T03:44:41.797Z,22.30
2018-07-30T03:47:14.526Z,22.20
2018-07-30T03:49:46.920Z,22.20
2018-07-30T03:52:19.354Z,22.20
2018-07-30T03:54:51.753Z,22.20
2018-07-30T03:57:24.393Z,22.20
2018-07-30T03:59:56.843Z,22.20
2018-07-30T04:02:29.293Z,22.20
2018-07-30T04:07:41.087Z,22.10
2018-07-30T04:10:13.493Z,22.10
2018-07-30T04:12:46.498Z,22.10
2018-07-30T04:15:18.837Z,22.10
2018-07-30T04:17:51.249Z,22.10
2018-07-30T04:20:23.924Z,22.10
2018-07-30T04:22:56.353Z,22.10
2018-07-30T04:25:28.794Z,22.10
2018-07-30T04:30:33.758Z,22.20
2018-07-30T04:33:06.435Z,22.20
2018-07-30T04:35:39.103Z,22.30
2018-07-30T04:38:11.486Z,22.30
2018-07-30T04:40:43.905Z,22.40
2018-07-30T04:43:16.602Z,22.40
2018-07-30T04:45:49.048Z,22.50
2018-07-30T04:48:21.470Z,22.60
2018-07-30T04:50:53.919Z,22.70
2018-07-30T04:53:26.379Z,22.90
2018-07-30T04:55:59.049Z,23.10
2018-07-30T04:58:31.484Z,23.40
2018-07-30T05:01:04.002Z,23.80
2018-07-30T05:03:36.453Z,24.20
2018-07-30T05:06:08.846Z,24.50
2018-07-30T05:08:41.242Z,25.00
2018-07-30T05:11:13.644Z,25.70
2018-07-30T05:13:46.048Z,26.70
2018-07-30T05:16:18.437Z,27.70
2018-07-30T05:18:50.849Z,28.80
2018-07-30T05:21:23.230Z,29.50
2018-07-30T05:23:55.649Z,30.30
2018-07-30T05:26:28.049Z,30.80
2018-07-30T05:29:00.474Z,31.30
2018-07-30T05:31:32.886Z,31.40
2018-07-30T05:34:05.278Z,31.70
2018-07-30T05:36:38.522Z,32.30
2018-07-30T05:39:10.933Z,32.90
2018-07-30T05:41:43.317Z,33.30
2018-07-30T05:44:15.727Z,33.50
2018-07-30T05:46:48.562Z,33.80
2018-07-30T05:49:20.970Z,34.30
2018-07-30T05:51:53.400Z,34.50
2018-07-30T05:54:25.809Z,34.70
2018-07-30T05:56:58.205Z,35.10
2018-07-30T05:59:30.645Z,35.20
2018-07-30T06:02:03.038Z,35.20
2018-07-30T06:04:35.432Z,35.40
2018-07-30T06:07:08.078Z,35.70
2018-07-30T06:12:12.965Z,36.50
2018-07-30T06:14:45.377Z,37.50
2018-07-30T06:17:17.805Z,37.30
2018-07-30T06:19:50.222Z,37.70
2018-07-30T06:22:22.861Z,37.60
2018-07-30T06:24:55.602Z,37.40
2018-07-30T06:27:28.328Z,37.80
2018-07-30T06:30:00.680Z,38.00
2018-07-30T06:32:33.301Z,38.40
2018-07-30T06:35:05.831Z,38.80
2018-07-30T06:37:38.239Z,39.10
2018-07-30T06:40:10.643Z,39.30
2018-07-30T06:42:43.065Z,38.60
2018-07-30T06:45:15.470Z,38.00
2018-07-30T06:47:48.203Z,37.20
2018-07-30T06:50:20.590Z,36.30
2018-07-30T06:52:53.264Z,34.90
2018-07-30T06:55:25.968Z,33.90
2018-07-30T06:57:58.477Z,33.30
2018-07-30T07:00:30.890Z,32.80
2018-07-30T07:03:03.279Z,32.40
2018-07-30T07:05:36.011Z,32.20
2018-07-30T07:08:08.398Z,32.10
2018-07-30T07:10:40.802Z,32.20
2018-07-30T07:13:13.207Z,32.50
2018-07-30T07:15:45.620Z,32.70
2018-07-30T07:18:18.030Z,33.20
2018-07-30T07:20:50.509Z,34.20
2018-07-30T07:23:22.851Z,34.70
2018-07-30T07:25:55.266Z,35.10
2018-07-30T07:28:27.757Z,36.00
2018-07-30T07:31:00.164Z,36.70
2018-07-30T07:33:32.559Z,37.00
2018-07-30T07:36:05.006Z,37.10
2018-07-30T07:38:37.653Z,37.00
2018-07-30T07:41:10.334Z,36.80
2018-07-30T07:43:43.009Z,36.70
2018-07-30T07:46:15.689Z,36.80
2018-07-30T07:48:48.075Z,36.40
2018-07-30T07:51:20.477Z,35.90
2018-07-30T07:53:53.418Z,35.50
2018-07-30T07:56:25.855Z,35.00
2018-07-30T07:58:58.252Z,34.70
2018-07-30T08:01:30.665Z,34.60
2018-07-30T08:04:03.085Z,34.50
2018-07-30T08:06:35.525Z,34.50
2018-07-30T08:09:08.731Z,34.20
2018-07-30T08:11:41.153Z,34.00
2018-07-30T08:14:13.544Z,34.10
2018-07-30T08:16:45.955Z,34.40
2018-07-30T08:19:18.351Z,34.50
2018-07-30T08:21:50.759Z,34.40
2018-07-30T08:24:23.417Z,34.40
2018-07-30T08:26:56.053Z,34.10
2018-07-30T08:29:28.458Z,33.90
2018-07-30T08:32:00.909Z,34.10
2018-07-30T08:34:33.301Z,34.20
2018-07-30T08:37:05.738Z,34.70
2018-07-30T08:39:38.144Z,35.30
2018-07-30T08:42:10.589Z,35.50
2018-07-30T08:44:43.255Z,35.60
2018-07-30T08:47:15.688Z,35.10
2018-07-30T08:49:48.077Z,34.70
2018-07-30T08:52:20.835Z,34.30
2018-07-30T08:54:53.235Z,34.10
2018-07-30T08:57:25.994Z,34.10
2018-07-30T08:59:58.534Z,34.10
2018-07-30T09:02:30.938Z,34.10
2018-07-30T09:05:03.394Z,34.20
2018-07-30T09:07:36.194Z,34.30
2018-07-30T09:10:08.885Z,34.60
2018-07-30T09:12:41.374Z,35.10
2018-07-30T09:15:13.705Z,35.80
2018-07-30T09:17:46.143Z,36.10
2018-07-30T09:20:18.546Z,36.40
2018-07-30T09:25:23.210Z,37.30
2018-07-30T09:27:55.619Z,37.50
2018-07-30T09:30:28.345Z,37.60
2018-07-30T09:33:00.941Z,37.80
2018-07-30T09:35:33.218Z,37.70
2018-07-30T09:38:05.632Z,37.40
2018-07-30T09:40:38.046Z,37.10
2018-07-30T09:43:10.450Z,37.00
2018-07-30T09:45:43.167Z,36.70
2018-07-30T09:48:15.593Z,36.80
2018-07-30T09:50:48.352Z,36.60
2018-07-30T09:53:21.089Z,36.80
2018-07-30T09:55:53.709Z,36.40
2018-07-30T09:58:26.377Z,36.50
2018-07-30T10:00:58.777Z,36.80
2018-07-30T10:03:31.437Z,36.90
2018-07-30T10:06:04.120Z,37.10
2018-07-30T10:08:36.793Z,37.40
2018-07-30T10:13:41.664Z,37.70
2018-07-30T10:16:14.379Z,37.60
2018-07-30T10:18:46.826Z,37.80
2018-07-30T10:21:19.550Z,37.80
2018-07-30T10:23:52.004Z,37.60
2018-07-30T10:26:24.354Z,38.00
2018-07-30T10:28:56.746Z,38.20
2018-07-30T10:31:29.121Z,38.20
2018-07-30T10:34:01.523Z,38.50
2018-07-30T10:36:34.307Z,38.50
2018-07-30T10:39:07.573Z,38.70
2018-07-30T10:41:39.986Z,38.60
2018-07-30T10:44:12.661Z,38.70
2018-07-30T10:46:45.398Z,38.70
2018-07-30T10:49:17.780Z,38.80
2018-07-30T10:51:50.250Z,39.00
2018-07-30T10:54:22.869Z,39.30
2018-07-30T10:56:55.310Z,39.30
2018-07-30T10:59:27.689Z,39.20
2018-07-30T11:02:00.380Z,38.90
2018-07-30T11:04:33.069Z,38.20
2018-07-30T11:07:05.713Z,37.50
2018-07-30T11:09:38.401Z,37.30
2018-07-30T11:12:10.782Z,37.00
2018-07-30T11:14:43.459Z,36.60
2018-07-30T11:17:16.030Z,36.30
2018-07-30T11:19:48.406Z,35.60
2018-07-30T11:22:20.846Z,35.20
2018-07-30T11:24:53.466Z,34.90
2018-07-30T11:27:26.154Z,34.60
2018-07-30T11:29:58.534Z,34.40
2018-07-30T11:32:31.201Z,34.20
2018-07-30T11:35:03.949Z,34.20
2018-07-30T11:37:36.897Z,34.10
2018-07-30T11:40:09.290Z,34.10
2018-07-30T11:42:42.018Z,34.20
2018-07-30T11:45:14.406Z,34.10
2018-07-30T11:47:46.820Z,33.70
2018-07-30T11:50:19.241Z,33.60
2018-07-30T11:52:52.228Z,33.70
2018-07-30T11:55:24.617Z,33.50
2018-07-30T11:57:57.049Z,33.50
2018-07-30T12:00:29.443Z,33.60
2018-07-30T12:03:01.891Z,33.50
2018-07-30T12:05:34.372Z,33.50
2018-07-30T12:08:06.770Z,33.40
2018-07-30T12:10:39.216Z,33.50
2018-07-30T12:15:43.827Z,33.50
2018-07-30T12:18:16.449Z,33.40
2018-07-30T12:20:48.863Z,33.40
2018-07-30T12:23:21.270Z,33.40
2018-07-30T12:25:53.662Z,33.40
2018-07-30T12:28:26.316Z,33.50
2018-07-30T12:30:58.705Z,33.60
2018-07-30T12:33:31.110Z,33.70
2018-07-30T12:36:03.893Z,33.80
2018-07-30T12:38:36.328Z,34.00
2018-07-30T12:41:08.989Z,34.10
2018-07-30T12:43:41.689Z,34.20
2018-07-30T12:46:14.065Z,34.30
2018-07-30T12:48:46.456Z,34.40
2018-07-30T12:51:18.841Z,34.40
2018-07-30T12:53:51.561Z,34.40
2018-07-30T12:56:24.249Z,34.40
2018-07-30T12:58:56.653Z,34.30
2018-07-30T13:01:29.034Z,34.30
2018-07-30T13:04:01.430Z,34.30
2018-07-30T13:06:33.850Z,34.40
2018-07-30T13:09:06.824Z,34.50
2018-07-30T13:11:39.495Z,34.50
2018-07-30T13:14:11.913Z,34.50
2018-07-30T13:16:44.586Z,34.50
2018-07-30T13:19:17.278Z,34.50
2018-07-30T13:21:49.667Z,34.50
2018-07-30T13:24:22.122Z,34.50
2018-07-30T13:26:54.536Z,34.50
2018-07-30T13:29:26.981Z,34.50
2018-07-30T13:31:59.405Z,34.40
2018-07-30T13:34:31.818Z,34.30
2018-07-30T13:37:04.377Z,34.20
2018-07-30T13:39:36.783Z,34.10
2018-07-30T13:42:09.203Z,34.10
2018-07-30T13:44:41.607Z,34.00
2018-07-30T13:47:14.017Z,33.90
2018-07-30T13:49:46.439Z,33.90
2018-07-30T13:52:18.839Z,33.80
2018-07-30T13:54:51.512Z,33.90
2018-07-30T13:57:23.893Z,33.90
2018-07-30T13:59:56.299Z,33.90
2018-07-30T14:02:28.707Z,33.80
2018-07-30T14:05:01.366Z,33.80
2018-07-30T14:07:33.810Z,33.90
2018-07-30T14:10:06.233Z,33.90
2018-07-30T14:12:38.698Z,33.90
2018-07-30T14:15:11.113Z,33.90
2018-07-30T14:17:43.757Z,33.90
2018-07-30T14:20:16.429Z,34.00
2018-07-30T14:22:48.769Z,34.10
2018-07-30T14:25:21.178Z,34.10
2018-07-30T14:27:53.816Z,34.20
2018-07-30T14:30:26.745Z,34.40
2018-07-30T14:32:59.133Z,34.70
2018-07-30T14:35:31.864Z,34.90
2018-07-30T14:38:04.228Z,35.00
2018-07-30T14:40:36.633Z,35.00
2018-07-30T14:43:09.029Z,35.00
2018-07-30T14:45:41.405Z,35.00
2018-07-30T14:48:13.806Z,34.80
2018-07-30T14:50:46.194Z,34.80
2018-07-30T14:53:18.907Z,34.70
2018-07-30T14:55:51.533Z,34.60
2018-07-30T14:58:23.934Z,34.70
2018-07-30T15:00:56.327Z,34.70
2018-07-30T15:03:28.706Z,34.80
2018-07-30T15:06:01.161Z,34.90
2018-07-30T15:08:33.800Z,35.00
2018-07-30T15:11:06.248Z,34.90
2018-07-30T15:13:38.873Z,34.90
2018-07-30T15:16:11.586Z,34.70
2018-07-30T15:18:43.977Z,34.70
2018-07-30T15:21:16.394Z,34.60
2018-07-30T15:23:48.809Z,34.60
2018-07-30T15:26:21.297Z,34.50
2018-07-30T15:28:53.727Z,34.40
2018-07-30T15:31:26.118Z,34.40
2018-07-30T15:33:58.588Z,34.30
2018-07-30T15:36:31.276Z,34.40
2018-07-30T15:41:37.793Z,34.60
2018-07-30T15:44:10.161Z,34.70
2018-07-30T15:46:42.589Z,34.70
2018-07-30T15:49:15.054Z,34.80
2018-07-30T15:51:47.754Z,34.90
2018-07-30T15:54:20.142Z,34.80
2018-07-30T15:56:52.826Z,34.80
2018-07-30T15:59:25.213Z,34.70
2018-07-30T16:01:57.681Z,34.60
2018-07-30T16:04:30.333Z,34.50
2018-07-30T16:07:02.749Z,34.40
2018-07-30T16:09:35.429Z,34.40
2018-07-30T16:12:07.894Z,34.40
2018-07-30T16:14:40.261Z,34.30
2018-07-30T16:17:12.694Z,34.30
2018-07-30T16:19:45.073Z,34.30
2018-07-30T16:22:17.490Z,34.30
2018-07-30T16:24:49.873Z,34.30
2018-07-30T16:27:22.261Z,34.20
2018-07-30T16:29:54.642Z,34.20
2018-07-30T16:32:27.043Z,34.10
2018-07-30T16:34:59.674Z,34.10
2018-07-30T16:37:32.394Z,34.00
2018-07-30T16:40:05.378Z,33.90
2018-07-30T16:42:38.018Z,33.90
2018-07-30T16:45:10.939Z,33.80
2018-07-30T16:47:43.593Z,33.70
2018-07-30T16:50:16.034Z,33.60
2018-07-30T16:52:48.758Z,33.50
2018-07-30T16:55:21.141Z,33.50
2018-07-30T16:57:53.541Z,33.50
2018-07-30T17:00:25.954Z,33.50
2018-07-30T17:02:58.362Z,33.40
2018-07-30T17:05:31.038Z,33.40
2018-07-30T17:08:03.425Z,33.40
2018-07-30T17:10:35.848Z,33.30
2018-07-30T17:13:08.257Z,33.30
2018-07-30T17:15:40.934Z,33.20
2018-07-30T17:18:13.327Z,33.10
2018-07-30T17:20:45.746Z,33.10
2018-07-30T17:23:18.421Z,33.00
2018-07-30T17:25:50.821Z,32.90
2018-07-30T17:28:23.201Z,32.80
2018-07-30T17:30:55.627Z,32.80
2018-07-30T17:33:28.030Z,32.70
2018-07-30T17:36:00.441Z,32.70
2018-07-30T17:38:33.272Z,32.60
2018-07-30T17:41:05.833Z,32.50
2018-07-30T17:43:38.541Z,32.40
2018-07-30T17:46:11.123Z,32.40
2018-07-30T17:48:43.781Z,32.40
2018-07-30T17:51:16.685Z,32.30
2018-07-30T17:53:49.133Z,32.20
2018-07-30T17:56:21.542Z,32.10
2018-07-30T17:58:53.989Z,32.10
2018-07-30T18:01:26.434Z,32.00
2018-07-30T18:03:58.833Z,32.00
2018-07-30T18:06:31.285Z,31.90
2018-07-30T18:09:06.165Z,31.80
2018-07-30T18:11:38.590Z,31.80
2018-07-30T18:14:11.017Z,31.70
2018-07-30T18:16:43.433Z,31.60
2018-07-30T18:19:15.856Z,31.60
2018-07-30T18:21:48.353Z,31.50
2018-07-30T18:24:21.076Z,31.50
2018-07-30T18:26:53.488Z,31.40
2018-07-30T18:29:25.895Z,31.30
2018-07-30T18:31:58.293Z,31.30
2018-07-30T18:34:30.714Z,31.20
2018-07-30T18:37:03.381Z,31.20
2018-07-30T18:39:36.031Z,31.10
2018-07-30T18:42:08.459Z,31.10
2018-07-30T18:44:40.863Z,31.00
2018-07-30T18:47:13.295Z,30.90
2018-07-30T18:49:45.685Z,30.90
2018-07-30T18:52:18.129Z,30.80
2018-07-30T18:54:50.531Z,30.80
2018-07-30T18:57:22.929Z,30.70
2018-07-30T18:59:55.325Z,30.70
2018-07-30T19:02:27.753Z,30.60
2018-07-30T19:05:00.188Z,30.50
2018-07-30T19:07:32.925Z,30.40
2018-07-30T19:10:05.729Z,30.30
2018-07-30T19:12:38.418Z,30.30
2018-07-30T19:17:43.374Z,30.10
2018-07-30T19:20:15.771Z,30.00
2018-07-30T19:22:48.447Z,30.00
2018-07-30T19:25:20.817Z,29.90
2018-07-30T19:27:53.225Z,29.80
2018-07-30T19:30:25.617Z,29.70
2018-07-30T19:32:58.022Z,29.70
2018-07-30T19:35:30.760Z,29.60
2018-07-30T19:38:03.257Z,29.50
2018-07-30T19:40:35.649Z,29.40
2018-07-30T19:43:08.070Z,29.40
2018-07-30T19:45:40.491Z,29.30
2018-07-30T19:48:12.963Z,29.30
2018-07-30T19:50:45.949Z,29.20
2018-07-30T19:53:18.351Z,29.10
